CEST,Max TemperatureF,Mean TemperatureF,Min TemperatureF,Max Dew PointF,MeanDew PointF,Min DewpointF,Max Humidity, Mean Humidity, Min Humidity, Max Sea Level PressureIn, Mean Sea Level PressureIn, Min Sea Level PressureIn, Max VisibilityMiles, Mean VisibilityMiles, Min VisibilityMiles, Max Wind SpeedMPH, Mean Wind SpeedMPH, Max Gust SpeedMPH,PrecipitationIn, CloudCover, Events, WindDirDegrees
2013-4-1,68,62,55,59,52,43,100,73,38,29.65,29.52,29.44,19,7,3,24,10,31,0.01,2,Rain,239
2013-4-2,66,54,41,54,45,38,100,69,27,29.80,29.71,29.65,19,7,6,20,7,,0.00,2,,279
2013-4-3,70,55,40,54,45,37,94,67,25,29.82,29.72,29.59,19,8,6,12,4,,0.00,1,,168
2013-4-4,66,60,53,55,50,46,88,72,40,29.62,29.53,29.47,19,7,6,21,8,32,0.00,1,,265
2013-4-5,66,55,44,52,49,44,100,76,40,29.74,29.64,29.59,12,6,5,16,4,,0.24,3,Fog-Rain,242
2013-4-6,56,50,45,46,41,35,87,69,39,29.95,29.84,29.74,19,6,2,17,11,29,0.02,3,Rain,322
2013-4-7,63,53,43,46,43,38,93,67,36,30.04,29.99,29.95,16,7,6,17,5,25,0.00,1,,273
2013-4-8,66,54,43,55,49,42,94,74,49,29.95,29.87,29.83,19,7,6,23,8,,0.00,1,,230
2013-4-9,69,56,44,54,49,36,100,76,20,29.95,29.89,29.86,19,8,3,26,6,37,0.00,1,Fog,219
2013-4-10,73,60,47,55,52,47,100,78,43,30.06,29.99,29.95,19,6,0,21,4,,0.00,1,Fog,211
2013-4-11,66,58,50,59,56,50,94,87,65,30.06,29.96,29.86,16,6,2,14,6,,0.00,4,,204
2013-4-12,71,59,47,57,53,46,94,76,37,30.09,29.98,29.89,19,7,5,15,6,,0.00,1,,214
2013-4-13,70,57,44,55,50,44,94,75,34,30.24,30.16,30.09,19,14,11,14,3,,0.00,,,228
2013-4-14,77,58,40,48,43,32,93,55,14,30.27,30.23,30.21,19,10,6,16,6,,0.00,1,,65
2013-4-15,80,64,48,54,47,40,82,56,16,30.24,30.19,30.15,19,8,6,12,7,,0.00,1,,55
2013-4-16,71,58,46,61,52,45,94,80,46,30.21,30.17,30.15,19,10,6,14,3,,0.00,1,,222
2013-4-17,72,60,49,59,54,48,100,79,54,30.22,30.18,30.15,19,7,5,10,2,,0.00,1,Fog,224
2013-4-18,75,61,47,55,47,37,94,63,20,30.19,30.15,30.12,19,9,3,14,3,,0.00,1,Fog,229
2013-4-19,74,61,48,59,50,45,100,71,33,30.21,30.12,30.09,19,6,0,23,7,32,0.00,3,Fog,58
2013-4-20,66,57,48,48,45,40,76,62,35,30.22,30.17,30.12,17,7,6,17,9,,0.00,2,,272
2013-4-21,67,56,46,52,49,43,88,71,45,30.15,30.09,30.04,19,7,6,17,7,,0.00,1,,217
2013-4-22,67,56,46,52,49,46,94,80,48,30.12,30.06,30.04,19,7,6,13,3,,0.08,2,Rain,81
2013-4-23,69,54,40,54,45,37,100,69,23,30.21,30.15,30.09,19,8,6,22,6,28,0.00,1,,47
2013-4-24,69,58,47,55,52,46,94,78,48,30.21,30.16,30.09,16,7,6,23,11,34,0.03,3,Rain,58
2013-4-25,63,60,58,59,57,54,94,85,71,30.06,29.96,29.89,9,4,1,26,19,40,0.04,7,Rain,66
2013-4-26,67,62,57,61,59,55,100,89,75,29.98,29.85,29.80,4,3,0,17,9,,0.39,3,Fog-Rain,77
2013-4-27,61,57,53,59,55,48,100,93,74,29.82,29.73,29.68,6,3,0,20,4,21,0.24,5,Fog-Rain,58
2013-4-28,65,58,52,59,55,50,94,89,71,29.80,29.70,29.65,9,6,2,22,15,28,0.02,5,Rain,105
2013-4-29,61,58,55,57,56,52,100,92,74,29.86,29.76,29.71,16,5,2,20,8,,0.01,6,Rain,8
2013-4-30,67,56,45,54,50,45,100,75,43,30.01,29.92,29.83,19,7,6,15,7,,0.00,1,,231